Time;durP1;ratioP1;P1;durP2;ratioP2;P2;SDS_P1;SDS_P2;PMS_P1;PMS_P2;Temp;Humidity;BMP_temperature;BMP_pressure;BME280_temperature;BME280_humidity;BME280_pressure;Samples;Min_cycle;Max_cycle;Signal;HPM_P1;HPM_P2
2021/12/22 00:02:11;;;;;;;92.15;37.90;;;1.10;99.90;;;;;;6282987;22;19906;-67
2021/12/22 00:04:43;;;;;;;;;;;1.00;99.90;;;;;;6338843;22;19999;-68
2021/12/22 00:07:11;;;;;;;102.60;37.10;;;1.00;99.90;;;;;;6335546;22;19905;-68
2021/12/22 00:09:37;;;;;;;99.25;38.30;;;1.00;99.90;;;;;;6338734;22;20342;-69
2021/12/22 00:12:03;;;;;;;94.85;38.40;;;1.00;99.90;;;;;;6337107;22;20006;-69
2021/12/22 00:14:29;;;;;;;89.10;37.65;;;1.00;99.90;;;;;;6336796;22;20422;-70
2021/12/22 00:16:55;;;;;;;83.75;38.03;;;1.00;99.90;;;;;;6338888;22;20094;-68
2021/12/22 00:19:20;;;;;;;;;;;1.00;99.90;;;;;;6339621;22;20007;-68
2021/12/22 00:21:46;;;;;;;81.82;34.85;;;1.00;99.90;;;;;;6312577;22;19909;-68
2021/12/22 00:24:11;;;;;;;;;;;1.00;99.90;;;;;;6314996;22;20003;-69
2021/12/22 00:26:38;;;;;;;87.45;35.55;;;1.00;99.90;;;;;;6341662;22;19898;-69
2021/12/22 00:29:04;;;;;;;93.38;37.33;;;1.00;99.90;;;;;;6342178;22;20191;-68
2021/12/22 00:31:38;;;;;;;90.70;37.10;;;1.10;99.90;;;;;;6341592;22;20380;-68
2021/12/22 00:34:05;;;;;;;89.47;35.70;;;1.10;99.90;;;;;;6340329;22;20011;-70
2021/12/22 00:36:31;;;;;;;92.22;37.00;;;1.10;99.90;;;;;;6339189;22;20005;-71
2021/12/22 00:38:56;;;;;;;89.25;38.03;;;1.10;99.90;;;;;;6341057;22;20019;-70
2021/12/22 00:41:22;;;;;;;;;;;1.00;99.90;;;;;;6343705;22;19998;-68
2021/12/22 00:43:48;;;;;;;86.50;34.30;;;0.90;99.90;;;;;;6342084;22;19899;-70
2021/12/22 00:46:13;;;;;;;;;;;0.90;99.90;;;;;;6341026;22;20070;-68
2021/12/22 00:48:40;;;;;;;93.28;36.28;;;0.90;99.90;;;;;;6341986;22;19922;-68
2021/12/22 00:51:06;;;;;;;90.25;36.03;;;0.80;99.90;;;;;;6341615;22;20030;-69
2021/12/22 00:53:31;;;;;;;96.75;37.60;;;1.00;99.90;;;;;;6340545;22;20433;-69
2021/12/22 00:55:57;;;;;;;88.88;37.63;;;0.90;99.90;;;;;;6340098;22;20039;-69
2021/12/22 00:58:23;;;;;;;;;;;0.80;99.90;;;;;;6340842;22;20109;-70
2021/12/22 01:00:49;;;;;;;90.97;38.42;;;0.80;99.90;;;;;;6337812;22;19962;-67
2021/12/22 01:03:17;;;;;;;91.88;37.78;;;0.70;99.90;;;;;;6340403;22;19999;-68
2021/12/22 01:05:43;;;;;;;88.43;39.50;;;0.70;99.90;;;;;;6312354;22;20036;-70
2021/12/22 01:08:09;;;;;;;;;;;0.60;99.90;;;;;;6342622;22;20011;-69
2021/12/22 01:10:35;;;;;;;89.03;36.90;;;0.60;99.90;;;;;;6341515;22;19917;-69
2021/12/22 01:13:04;;;;;;;95.57;38.75;;;0.50;99.90;;;;;;6339788;22;20082;-69
2021/12/22 01:15:31;;;;;;;95.50;38.50;;;0.40;99.90;;;;;;6341125;22;20020;-69
2021/12/22 01:18:06;;;;;;;104.40;39.75;;;0.40;99.90;;;;;;6341083;22;20022;-69
2021/12/22 01:20:40;;;;;;;99.88;39.58;;;0.30;99.90;;;;;;6340416;22;20017;-68
2021/12/22 01:23:07;;;;;;;104.97;39.17;;;0.30;99.90;;;;;;6343162;22;20002;-68
2021/12/22 01:25:38;;;;;;;97.25;40.58;;;0.30;99.90;;;;;;6313290;22;20063;-69
2021/12/22 01:28:04;;;;;;;98.13;39.80;;;0.30;99.90;;;;;;6343188;22;20006;-69
2021/12/22 01:30:31;;;;;;;;;;;0.30;99.90;;;;;;6341954;22;20078;-68
2021/12/22 01:33:00;;;;;;;99.97;37.58;;;0.30;99.90;;;;;;6312459;22;20325;-68
2021/12/22 01:35:28;;;;;;;98.78;39.88;;;0.40;99.90;;;;;;6339607;22;20006;-68
2021/12/22 01:37:54;;;;;;;95.90;37.92;;;0.40;99.90;;;;;;6340215;22;19999;-68
2021/12/22 01:40:21;;;;;;;;;;;0.40;99.90;;;;;;6339657;22;20068;-67
2021/12/22 01:42:48;;;;;;;99.45;37.28;;;0.30;99.90;;;;;;6340799;22;20306;-69
2021/12/22 01:45:55;;;;;;;90.05;38.47;;;0.40;99.90;;;;;;6340619;22;19999;-69
2021/12/22 01:51:45;;;;;;;84.13;35.72;;;0.20;99.90;;;;;;6341181;22;20406;-70
2021/12/22 01:54:27;;;;;;;90.75;37.40;;;0.20;99.90;;;;;;6313273;22;20456;-67
2021/12/22 01:57:13;;;;;;;91.57;36.30;;;0.20;99.90;;;;;;6342024;22;20036;-69
2021/12/22 01:59:41;;;;;;;98.93;37.90;;;0.10;99.90;;;;;;6339636;22;20017;-70
2021/12/22 02:02:09;;;;;;;92.15;37.25;;;0.10;99.90;;;;;;6339459;22;20009;-68
2021/12/22 02:04:37;;;;;;;94.35;36.55;;;0.10;99.90;;;;;;6339615;22;19999;-69
2021/12/22 02:07:04;;;;;;;81.80;35.17;;;0.30;99.90;;;;;;6338785;22;20058;-69
2021/12/22 02:12:14;;;;;;;93.15;35.88;;;0.30;99.90;;;;;;6341909;22;20014;-67
2021/12/22 02:14:41;;;;;;;98.13;36.35;;;0.40;99.90;;;;;;6347847;22;20102;-69
2021/12/22 02:17:09;;;;;;;88.00;36.25;;;0.30;99.90;;;;;;6349030;22;20041;-70
2021/12/22 02:19:39;;;;;;;90.10;33.97;;;0.30;99.90;;;;;;6346940;22;20061;-68
2021/12/22 02:22:09;;;;;;;87.63;35.50;;;0.30;99.90;;;;;;6346183;22;20006;-69
2021/12/22 02:24:35;;;;;;;84.28;34.47;;;0.30;99.90;;;;;;6348520;22;20049;-68
2021/12/22 02:27:06;;;;;;;;;;;0.20;99.90;;;;;;6343870;22;20426;-69
2021/12/22 02:29:37;;;;;;;84.60;33.22;;;0.20;99.90;;;;;;6342760;22;20280;-68
2021/12/22 02:32:13;;;;;;;99.03;35.88;;;0.20;99.90;;;;;;6339693;22;20015;-68
2021/12/22 02:34:45;;;;;;;86.82;34.10;;;0.20;99.90;;;;;;6341309;22;20009;-68
2021/12/22 02:37:15;;;;;;;97.32;37.55;;;0.20;99.90;;;;;;6341060;22;20036;-68
2021/12/22 02:39:53;;;;;;;88.70;37.53;;;0.20;99.90;;;;;;6339723;22;20034;-68
2021/12/22 02:42:22;;;;;;;86.72;36.08;;;0.20;99.90;;;;;;6339617;22;20006;-68
2021/12/22 02:44:48;;;;;;;82.45;35.47;;;0.20;99.90;;;;;;6340771;22;20440;-68
2021/12/22 02:47:21;;;;;;;;;;;0.10;99.90;;;;;;6338960;22;20037;-69
2021/12/22 02:49:47;;;;;;;97.10;35.85;;;0.10;99.90;;;;;;6341148;22;19905;-68
2021/12/22 02:52:13;;;;;;;101.28;37.85;;;0.00;99.90;;;;;;6338500;22;20010;-68
2021/12/22 02:54:55;;;;;;;;;;;0.00;99.90;;;;;;6341056;22;20067;-69
2021/12/22 02:57:32;;;;;;;96.43;34.85;;;0.00;99.90;;;;;;6337074;22;19924;-68
2021/12/22 03:03:04;;;;;;;95.00;36.15;;;0.00;99.90;;;;;;6340789;22;20067;-67
2021/12/22 03:05:30;;;;;;;87.72;32.58;;;0.00;99.90;;;;;;6341427;22;20418;-67
2021/12/22 03:07:56;;;;;;;94.28;36.17;;;0.10;99.90;;;;;;6344018;22;19994;-68
2021/12/22 03:10:22;;;;;;;;;;;0.10;99.90;;;;;;6346962;22;20065;-69
2021/12/22 03:12:55;;;;;;;92.88;35.70;;;0.10;99.90;;;;;;6341007;22;19930;-68
2021/12/22 03:15:21;;;;;;;90.45;34.92;;;0.10;99.90;;;;;;6342090;22;20056;-68
2021/12/22 03:17:48;;;;;;;;;;;0.10;99.90;;;;;;6341815;22;20003;-68
2021/12/22 03:20:15;;;;;;;94.13;35.67;;;0.20;99.90;;;;;;6311203;22;19933;-70
2021/12/22 03:22:43;;;;;;;90.07;35.67;;;0.20;99.90;;;;;;6339566;22;19999;-70
2021/12/22 03:25:15;;;;;;;95.78;35.97;;;0.20;99.90;;;;;;6341078;22;20055;-68
2021/12/22 03:28:01;;;;;;;86.93;33.88;;;0.30;99.90;;;;;;6336623;22;20001;-68
2021/12/22 03:30:26;;;;;;;79.32;33.72;;;0.40;99.90;;;;;;6341320;22;20007;-69
2021/12/22 03:32:52;;;;;;;;;;;0.40;99.90;;;;;;6342393;22;20033;-68
2021/12/22 03:35:20;;;;;;;84.38;33.42;;;0.30;99.90;;;;;;6341407;22;19899;-69
2021/12/22 03:37:54;;;;;;;84.50;32.25;;;0.30;99.90;;;;;;6340731;22;20053;-67
2021/12/22 03:40:22;;;;;;;81.82;32.15;;;0.30;99.90;;;;;;6340696;22;20428;-69
2021/12/22 03:42:48;;;;;;;84.63;34.33;;;0.30;99.90;;;;;;6340401;22;19999;-67
2021/12/22 03:45:14;;;;;;;;;;;0.30;99.90;;;;;;6340377;22;20059;-67
2021/12/22 03:47:40;;;;;;;82.38;33.03;;;0.20;99.90;;;;;;6342257;22;19955;-68
2021/12/22 03:50:07;;;;;;;;;;;0.10;99.90;;;;;;6342823;22;20038;-69
2021/12/22 03:52:33;;;;;;;79.13;32.25;;;0.00;99.90;;;;;;6344835;22;20293;-69
2021/12/22 03:54:59;;;;;;;;;;;0.00;99.90;;;;;;6344802;22;19995;-69
2021/12/22 03:57:26;;;;;;;93.30;36.50;;;0.00;99.90;;;;;;6342248;22;19931;-67
2021/12/22 03:59:52;;;;;;;79.32;34.25;;;0.00;99.90;;;;;;6339612;22;20038;-67
2021/12/22 04:02:20;;;;;;;94.82;35.35;;;-0.10;99.90;;;;;;6341604;22;19999;-67
2021/12/22 04:04:48;;;;;;;93.90;33.85;;;-0.20;99.90;;;;;;6344994;22;19995;-67
2021/12/22 04:07:15;;;;;;;84.43;34.78;;;-0.20;99.90;;;;;;6341015;22;19999;-69
2021/12/22 04:09:40;;;;;;;81.47;34.05;;;-0.10;99.90;;;;;;6340988;22;19994;-67
2021/12/22 04:12:06;;;;;;;;;;;0.00;99.90;;;;;;6341397;22;20238;-69
2021/12/22 04:14:32;;;;;;;85.65;31.08;;;0.00;99.90;;;;;;6341118;22;19899;-67
2021/12/22 04:16:57;;;;;;;92.07;32.35;;;0.10;99.90;;;;;;6341903;22;20048;-68
2021/12/22 04:19:23;;;;;;;79.70;31.40;;;0.30;99.90;;;;;;6340639;22;20094;-69
2021/12/22 04:21:50;;;;;;;;;;;0.30;99.90;;;;;;6313454;22;20030;-68
2021/12/22 04:24:16;;;;;;;78.80;30.13;;;0.30;99.90;;;;;;6341667;22;19903;-68
2021/12/22 04:26:42;;;;;;;79.85;30.80;;;0.30;99.90;;;;;;6339783;22;20006;-69
2021/12/22 04:29:10;;;;;;;;;;;0.30;99.90;;;;;;6341867;22;19999;-68
2021/12/22 04:31:36;;;;;;;74.82;31.00;;;0.40;99.90;;;;;;6342248;22;19907;-69
2021/12/22 04:34:03;;;;;;;;;;;0.30;99.90;;;;;;6341187;22;19995;-68
2021/12/22 04:36:29;;;;;;;74.18;28.20;;;0.40;99.90;;;;;;6341442;22;19928;-69
2021/12/22 04:38:56;;;;;;;;;;;0.50;99.90;;;;;;6340432;22;20003;-69
2021/12/22 04:41:21;;;;;;;66.82;26.77;;;0.60;99.90;;;;;;6342260;22;19939;-69
2021/12/22 04:43:47;;;;;;;;;;;0.70;99.90;;;;;;6343202;22;20070;-69
2021/12/22 04:46:13;;;;;;;72.43;25.95;;;0.80;99.90;;;;;;6339994;22;20318;-68
2021/12/22 04:48:38;;;;;;;;;;;0.80;99.90;;;;;;6314431;22;20312;-69
2021/12/22 04:51:12;;;;;;;73.22;27.17;;;1.00;99.90;;;;;;6341413;22;19913;-69
2021/12/22 04:53:50;;;;;;;71.28;27.17;;;0.90;99.90;;;;;;6339774;22;20345;-67
2021/12/22 04:56:15;;;;;;;75.57;28.35;;;1.00;99.90;;;;;;6341683;22;20307;-68
2021/12/22 04:58:41;;;;;;;67.78;27.85;;;1.00;99.90;;;;;;6341089;22;20031;-69
2021/12/22 05:01:06;;;;;;;;;;;1.00;99.90;;;;;;6341856;22;20027;-68
2021/12/22 05:03:32;;;;;;;60.45;24.08;;;0.90;99.90;;;;;;6348469;22;19947;-68
2021/12/22 05:05:58;;;;;;;;;;;1.00;99.90;;;;;;6347165;22;20403;-68
2021/12/22 05:08:23;;;;;;;72.47;27.20;;;1.00;99.90;;;;;;6346249;22;20314;-70
2021/12/22 05:10:49;;;;;;;;;;;1.10;99.90;;;;;;6346454;22;20005;-67
2021/12/22 05:13:14;;;;;;;62.33;24.63;;;1.40;99.90;;;;;;6343799;22;19902;-69
2021/12/22 05:15:40;;;;;;;68.70;26.25;;;1.40;99.90;;;;;;6340537;22;19995;-69
2021/12/22 05:20:38;;;;;;;59.15;25.35;;;1.60;99.90;;;;;;6344017;22;20101;-68
2021/12/22 05:23:04;;;;;;;66.38;25.85;;;1.60;99.90;;;;;;6315896;22;19999;-68
2021/12/22 05:25:29;;;;;;;;;;;1.60;99.90;;;;;;6313341;22;20007;-69
2021/12/22 05:27:55;;;;;;;62.38;24.30;;;1.60;99.90;;;;;;6343587;22;19898;-67
2021/12/22 05:30:20;;;;;;;65.15;24.42;;;1.60;99.90;;;;;;6335747;22;20105;-69
2021/12/22 05:32:46;;;;;;;;;;;1.70;99.90;;;;;;6334624;22;20018;-69
2021/12/22 05:35:12;;;;;;;58.15;23.02;;;1.90;99.90;;;;;;6334222;22;20019;-69
2021/12/22 05:37:39;;;;;;;67.35;24.35;;;2.10;99.90;;;;;;6335041;22;20038;-69
2021/12/22 05:40:07;;;;;;;66.30;23.10;;;2.30;99.90;;;;;;6333315;22;20018;-68
2021/12/22 05:42:33;;;;;;;60.55;23.08;;;2.20;99.90;;;;;;6307372;22;20322;-70
2021/12/22 05:44:59;;;;;;;64.93;24.10;;;2.20;99.90;;;;;;6336343;22;20022;-69
2021/12/22 05:47:24;;;;;;;61.00;24.60;;;2.00;99.90;;;;;;6333738;22;20002;-68
2021/12/22 05:49:50;;;;;;;;;;;2.00;99.90;;;;;;6337523;22;20044;-70
2021/12/22 05:52:16;;;;;;;71.82;25.02;;;2.00;99.90;;;;;;6333688;22;19952;-68
2021/12/22 05:54:42;;;;;;;;;;;1.90;99.90;;;;;;6335144;22;20122;-68
2021/12/22 05:57:07;;;;;;;62.33;24.63;;;1.90;99.90;;;;;;6334503;22;19941;-69
2021/12/22 05:59:33;;;;;;;;;;;1.80;99.90;;;;;;6337188;22;20018;-68
2021/12/22 06:01:59;;;;;;;57.17;18.05;;;1.80;99.90;;;;;;6334498;22;19932;-68
2021/12/22 06:04:24;;;;;;;60.05;25.48;;;2.00;99.90;;;;;;6285079;22;1170876;-68
2021/12/22 06:06:50;;;;;;;65.05;24.48;;;2.00;99.90;;;;;;6337254;22;20407;-69
2021/12/22 06:09:16;;;;;;;54.72;24.58;;;1.90;99.90;;;;;;6339640;22;19998;-69
2021/12/22 06:11:41;;;;;;;67.32;23.90;;;1.90;99.90;;;;;;6338438;22;20311;-68
2021/12/22 06:14:08;;;;;;;57.70;23.80;;;2.00;99.90;;;;;;6337930;22;20023;-70
2021/12/22 06:16:34;;;;;;;58.38;23.77;;;2.20;99.90;;;;;;6336592;22;20438;-68
2021/12/22 06:19:04;;;;;;;66.00;25.08;;;2.30;99.90;;;;;;6334778;22;20002;-70
2021/12/22 06:21:31;;;;;;;55.63;23.98;;;2.30;99.90;;;;;;6309205;22;20003;-68
2021/12/22 06:23:57;;;;;;;55.45;23.33;;;2.40;99.90;;;;;;6338364;22;19999;-70
2021/12/22 06:26:23;;;;;;;65.05;25.70;;;2.30;99.90;;;;;;6311103;22;19999;-68
2021/12/22 06:28:50;;;;;;;54.03;24.30;;;2.30;99.90;;;;;;6339869;22;20304;-70
2021/12/22 06:31:15;;;;;;;66.55;25.05;;;2.40;99.90;;;;;;6338868;22;20006;-69
2021/12/22 06:33:41;;;;;;;61.50;24.88;;;2.60;99.90;;;;;;6341294;22;20005;-68
2021/12/22 06:36:07;;;;;;;60.88;23.65;;;2.50;99.90;;;;;;6342429;22;20002;-68
2021/12/22 06:38:32;;;;;;;;;;;2.60;99.90;;;;;;6337470;22;20423;-68
2021/12/22 06:40:59;;;;;;;63.85;25.30;;;2.60;99.90;;;;;;6339632;22;19913;-67
2021/12/22 06:43:25;;;;;;;61.95;24.90;;;2.70;99.90;;;;;;6311702;22;20006;-70
2021/12/22 06:45:50;;;;;;;;;;;2.80;99.90;;;;;;6337964;22;19994;-68
2021/12/22 06:48:16;;;;;;;62.47;24.67;;;2.70;99.90;;;;;;6309766;22;19898;-70
2021/12/22 06:50:42;;;;;;;63.45;26.00;;;2.60;99.90;;;;;;6340447;22;20032;-70
2021/12/22 06:53:07;;;;;;;53.83;24.85;;;2.60;99.90;;;;;;6345951;22;20002;-68
2021/12/22 06:55:33;;;;;;;73.32;26.20;;;2.70;99.90;;;;;;6350830;22;19999;-69
2021/12/22 06:58:00;;;;;;;;;;;2.50;99.90;;;;;;6352195;22;20054;-68
2021/12/22 07:00:26;;;;;;;73.57;25.17;;;2.40;99.90;;;;;;6348262;22;19951;-68
2021/12/22 07:02:53;;;;;;;;;;;2.50;99.90;;;;;;6349712;22;19995;-68
2021/12/22 07:05:19;;;;;;;58.50;24.50;;;2.50;99.90;;;;;;6349583;22;19929;-69
2021/12/22 07:07:45;;;;;;;62.42;25.75;;;2.60;99.90;;;;;;6349939;22;19995;-68
2021/12/22 07:10:12;;;;;;;52.90;25.45;;;2.70;99.90;;;;;;6349058;22;20006;-70
2021/12/22 07:12:43;;;;;;;69.18;27.33;;;2.70;99.90;;;;;;6319877;22;20074;-70
2021/12/22 07:15:14;;;;;;;63.63;26.40;;;2.70;99.90;;;;;;6349258;22;19991;-69
2021/12/22 07:17:46;;;;;;;61.85;25.45;;;2.60;99.90;;;;;;6349711;22;20071;-69
2021/12/22 07:20:12;;;;;;;59.85;26.25;;;2.70;99.90;;;;;;6348299;22;20393;-69
2021/12/22 07:22:38;;;;;;;65.00;25.83;;;2.60;99.90;;;;;;6347892;22;19999;-68
2021/12/22 07:25:05;;;;;;;;;;;2.70;99.90;;;;;;6346848;22;20014;-68
2021/12/22 07:27:32;;;;;;;66.40;25.20;;;2.70;99.90;;;;;;6343417;22;19978;-69
2021/12/22 07:29:57;;;;;;;59.05;24.77;;;2.80;99.90;;;;;;6345391;22;19995;-68
2021/12/22 07:32:23;;;;;;;69.85;26.15;;;2.70;99.90;;;;;;6343566;22;20021;-68
2021/12/22 07:35:21;;;;;;;60.67;25.52;;;2.60;99.90;;;;;;6344735;22;20423;-68
2021/12/22 07:38:07;;;;;;;60.28;26.10;;;2.50;99.90;;;;;;6320033;22;20027;-70
2021/12/22 07:40:33;;;;;;;60.85;26.95;;;2.60;99.90;;;;;;6347176;22;20427;-72
2021/12/22 07:42:59;;;;;;;65.18;27.38;;;2.50;99.90;;;;;;6348990;22;20410;-70
2021/12/22 07:45:25;;;;;;;62.13;27.15;;;2.40;99.90;;;;;;6348061;22;19995;-70
2021/12/22 07:47:50;;;;;;;61.95;26.70;;;2.60;99.90;;;;;;6323202;22;19995;-70
2021/12/22 07:50:16;;;;;;;64.18;26.15;;;2.70;99.90;;;;;;6349165;22;20059;-68
2021/12/22 07:52:42;;;;;;;68.20;25.42;;;2.60;99.90;;;;;;6350533;22;20323;-71
2021/12/22 07:55:08;;;;;;;65.63;26.92;;;2.70;99.90;;;;;;6349825;22;20006;-71
2021/12/22 07:57:33;;;;;;;62.65;26.23;;;2.70;99.90;;;;;;6350029;22;19998;-69
2021/12/22 07:59:59;;;;;;;62.67;25.17;;;2.70;99.90;;;;;;6348093;22;20055;-70
2021/12/22 08:02:25;;;;;;;61.05;27.65;;;2.60;99.90;;;;;;6344996;22;19998;-68
2021/12/22 08:04:50;;;;;;;62.03;26.80;;;2.60;99.90;;;;;;6348123;22;20033;-70
2021/12/22 08:07:16;;;;;;;66.70;27.58;;;2.50;99.90;;;;;;6346152;22;20029;-69
2021/12/22 08:09:42;;;;;;;72.18;27.13;;;2.50;99.90;;;;;;6348838;22;20068;-69
2021/12/22 08:12:08;;;;;;;64.07;27.00;;;2.60;99.90;;;;;;6346288;22;20082;-69
2021/12/22 08:14:39;;;;;;;66.22;27.50;;;2.60;99.90;;;;;;6349963;22;19999;-68
2021/12/22 08:17:06;;;;;;;66.78;26.92;;;2.50;99.90;;;;;;6348045;22;20002;-68
2021/12/22 08:19:32;;;;;;;56.55;26.50;;;2.50;99.90;;;;;;6319665;22;20003;-70
2021/12/22 08:21:58;;;;;;;56.60;26.85;;;2.50;99.90;;;;;;6348161;22;20046;-68
2021/12/22 08:24:24;;;;;;;57.90;26.05;;;2.40;99.90;;;;;;6349312;22;20012;-70
2021/12/22 08:26:50;;;;;;;;;;;2.50;99.90;;;;;;6319000;22;20003;-69
2021/12/22 08:29:16;;;;;;;60.45;26.30;;;2.50;99.90;;;;;;6347920;22;19899;-69
2021/12/22 08:31:41;;;;;;;70.20;27.20;;;2.50;99.90;;;;;;6348494;22;20391;-68
2021/12/22 08:34:09;;;;;;;71.55;25.85;;;2.50;99.90;;;;;;6348256;22;19999;-70
2021/12/22 08:39:20;;;;;;;67.05;25.33;;;2.80;99.90;;;;;;6348800;22;20025;-70
2021/12/22 08:41:48;;;;;;;57.72;25.70;;;2.70;99.90;;;;;;6348175;22;20307;-70
2021/12/22 08:44:17;;;;;;;54.88;24.58;;;2.80;99.90;;;;;;6350128;22;20394;-69
2021/12/22 08:46:48;;;;;;;66.40;26.73;;;2.70;99.90;;;;;;6325301;22;20387;-70
2021/12/22 08:49:14;;;;;;;64.95;27.25;;;2.60;99.90;;;;;;6352236;22;20009;-69
2021/12/22 08:51:40;;;;;;;57.35;26.15;;;2.60;99.90;;;;;;6341075;22;20003;-69
2021/12/22 08:54:06;;;;;;;65.05;26.33;;;2.60;99.90;;;;;;6341766;22;20120;-68
2021/12/22 08:56:32;;;;;;;;;;;2.50;99.90;;;;;;6342593;22;20006;-69
2021/12/22 08:58:58;;;;;;;69.05;26.88;;;2.50;99.90;;;;;;6341215;22;19898;-70
2021/12/22 09:01:26;;;;;;;56.40;24.38;;;2.50;99.90;;;;;;6342736;22;19999;-69
2021/12/22 09:03:53;;;;;;;67.68;25.55;;;2.60;99.90;;;;;;6339093;22;20010;-70
2021/12/22 09:06:19;;;;;;;53.67;24.95;;;2.60;99.90;;;;;;6339177;22;19999;-70
2021/12/22 09:08:45;;;;;;;;;;;2.80;99.90;;;;;;6311051;22;20007;-69
2021/12/22 09:11:12;;;;;;;59.83;24.13;;;2.90;99.90;;;;;;6336468;22;19994;-71
2021/12/22 09:13:39;;;;;;;55.42;22.27;;;3.00;99.90;;;;;;6336153;22;20003;-68
2021/12/22 09:16:07;;;;;;;59.55;22.80;;;3.10;99.90;;;;;;6343658;22;19995;-70
2021/12/22 09:18:33;;;;;;;53.20;22.55;;;3.10;99.90;;;;;;6352000;22;19990;-71
2021/12/22 09:20:58;;;;;;;;;;;3.30;99.90;;;;;;6361252;22;19987;-71
2021/12/22 09:23:27;;;;;;;46.17;20.13;;;3.40;99.90;;;;;;6358825;22;19902;-70
2021/12/22 09:25:53;;;;;;;45.10;19.70;;;3.50;99.90;;;;;;6357095;22;19987;-69
2021/12/22 09:28:19;;;;;;;52.65;20.73;;;3.40;99.90;;;;;;6358838;22;20006;-72
2021/12/22 09:30:46;;;;;;;59.85;23.35;;;3.50;99.90;;;;;;6357100;22;20090;-70
2021/12/22 09:33:18;;;;;;;58.20;20.65;;;3.60;99.90;;;;;;6332743;22;20014;-71
2021/12/22 09:35:46;;;;;;;50.45;19.83;;;3.50;99.90;;;;;;6359602;22;19987;-71
2021/12/22 09:38:13;;;;;;;49.40;18.92;;;3.60;99.90;;;;;;6360742;22;20034;-70
2021/12/22 09:40:39;;;;;;;44.15;18.63;;;3.60;99.90;;;;;;6361064;22;20007;-71
2021/12/22 09:43:05;;;;;;;;;;;3.60;99.90;;;;;;6362714;22;20068;-72
2021/12/22 09:45:33;;;;;;;40.77;16.70;;;3.70;99.90;;;;;;6360832;22;19891;-70
2021/12/22 09:50:44;;;;;;;38.83;16.10;;;4.00;99.90;;;;;;6363204;22;20054;-71
2021/12/22 09:53:10;;;;;;;45.03;16.83;;;3.90;99.90;;;;;;6361440;22;19995;-71
2021/12/22 09:55:36;;;;;;;39.05;15.25;;;4.00;99.90;;;;;;6363171;22;20018;-70
2021/12/22 09:58:06;;;;;;;36.58;16.15;;;4.20;99.90;;;;;;6361726;22;19987;-71
2021/12/22 10:00:35;;;;;;;35.33;14.10;;;4.20;99.90;;;;;;6360454;22;20005;-72
2021/12/22 10:03:02;;;;;;;39.25;14.50;;;4.20;99.90;;;;;;6335543;22;20002;-72
2021/12/22 10:05:27;;;;;;;36.00;14.57;;;4.10;99.90;;;;;;6361749;22;19995;-71
2021/12/22 10:08:16;;;;;;;34.63;14.43;;;4.20;99.90;;;;;;6359457;22;20048;-71
2021/12/22 10:10:49;;;;;;;39.42;14.63;;;4.30;99.90;;;;;;6327805;22;20007;-71
2021/12/22 10:13:22;;;;;;;33.20;14.13;;;4.30;99.90;;;;;;6361531;22;20012;-71
2021/12/22 10:15:49;;;;;;;31.52;13.68;;;4.40;99.90;;;;;;6361933;22;20025;-70
2021/12/22 10:18:21;;;;;;;;;;;4.40;99.90;;;;;;6362436;22;20036;-70
2021/12/22 10:20:50;;;;;;;45.10;13.95;;;4.40;99.90;;;;;;6333338;22;19918;-71
2021/12/22 10:23:20;;;;;;;32.90;13.60;;;4.40;99.90;;;;;;6361338;22;19999;-70
2021/12/22 10:25:54;;;;;;;41.85;15.15;;;4.50;99.90;;;;;;6357595;22;20014;-72
2021/12/22 10:28:20;;;;;;;39.53;14.55;;;4.50;99.90;;;;;;6360483;22;19991;-71
2021/12/22 10:30:48;;;;;;;29.15;13.77;;;4.50;99.90;;;;;;6358203;22;20047;-71
2021/12/22 10:33:15;;;;;;;30.08;12.73;;;4.50;99.90;;;;;;6357905;22;19990;-69
2021/12/22 10:35:46;;;;;;;33.05;13.00;;;4.60;99.90;;;;;;6360293;22;19979;-72
2021/12/22 10:38:13;;;;;;;35.92;12.68;;;4.70;99.90;;;;;;6336261;22;19999;-71
2021/12/22 10:40:48;;;;;;;34.65;12.98;;;4.70;99.90;;;;;;6361640;22;19987;-70
2021/12/22 10:43:21;;;;;;;29.75;12.25;;;4.60;99.90;;;;;;6335516;22;20009;-72
2021/12/22 10:45:51;;;;;;;32.25;13.50;;;4.70;99.90;;;;;;6362069;22;20029;-72
2021/12/22 10:51:12;;;;;;;37.42;13.73;;;4.70;99.90;;;;;;6361261;22;20030;-71
2021/12/22 10:53:47;;;;;;;34.47;12.50;;;4.70;99.90;;;;;;6360521;22;20082;-70
2021/12/22 10:56:31;;;;;;;33.97;11.95;;;4.90;99.90;;;;;;6362219;22;20014;-70
2021/12/22 10:59:15;;;;;;;31.50;13.00;;;4.90;99.90;;;;;;6354067;22;20013;-70
2021/12/22 11:01:53;;;;;;;33.58;13.05;;;4.80;99.90;;;;;;6355013;22;19995;-71
2021/12/22 11:04:26;;;;;;;32.97;11.82;;;4.90;99.90;;;;;;6354803;22;20007;-71
2021/12/22 11:06:55;;;;;;;34.72;12.23;;;4.80;99.90;;;;;;6356850;22;19994;-72
2021/12/22 11:09:22;;;;;;;37.35;11.65;;;4.80;99.90;;;;;;6354687;22;19999;-71
2021/12/22 11:12:06;;;;;;;33.45;12.65;;;4.80;99.90;;;;;;6352034;22;20014;-70
2021/12/22 11:14:39;;;;;;;33.55;13.25;;;5.00;99.90;;;;;;6330593;22;20009;-71
2021/12/22 11:17:12;;;;;;;30.67;12.23;;;5.20;99.90;;;;;;6355923;22;20078;-71
2021/12/22 11:20:03;;;;;;;29.50;12.32;;;5.10;99.90;;;;;;6352887;22;20005;-72
2021/12/22 11:22:52;;;;;;;26.83;11.90;;;4.90;99.90;;;;;;6359363;22;20014;-70
2021/12/22 11:25:19;;;;;;;32.67;12.90;;;5.00;99.90;;;;;;6353501;22;20006;-72
2021/12/22 11:27:46;;;;;;;26.30;11.85;;;5.00;99.90;;;;;;6355066;22;20014;-73
2021/12/22 11:30:12;;;;;;;28.42;11.75;;;5.20;99.90;;;;;;6359899;22;20059;-71
2021/12/22 11:32:39;;;;;;;30.35;12.50;;;5.20;99.90;;;;;;6355340;22;19995;-71
2021/12/22 11:35:08;;;;;;;31.55;12.70;;;5.10;99.90;;;;;;6357807;22;20054;-71
2021/12/22 11:37:34;;;;;;;35.97;12.23;;;5.20;99.90;;;;;;6330604;22;19995;-71
2021/12/22 11:40:00;;;;;;;;;;;5.20;99.90;;;;;;6356594;22;19995;-71
2021/12/22 11:42:39;;;;;;;31.88;12.23;;;5.20;99.90;;;;;;6360903;22;19910;-70
2021/12/22 11:45:17;;;;;;;32.03;11.38;;;5.30;99.90;;;;;;6359128;22;20007;-72
2021/12/22 11:47:46;;;;;;;32.38;11.75;;;5.30;99.90;;;;;;6326958;22;19999;-71
2021/12/22 11:50:15;;;;;;;31.73;11.38;;;5.40;99.90;;;;;;6358758;22;20072;-70
2021/12/22 11:52:43;;;;;;;30.90;11.88;;;5.40;99.90;;;;;;6356085;22;20002;-70
2021/12/22 11:55:14;;;;;;;27.52;10.00;;;5.50;99.90;;;;;;6354113;22;20043;-71
2021/12/22 11:57:44;;;;;;;32.13;11.63;;;5.60;99.90;;;;;;6354300;22;19999;-70
2021/12/22 12:00:27;;;;;;;26.63;11.93;;;5.60;99.90;;;;;;6350519;22;20009;-71
2021/12/22 12:02:54;;;;;;;27.67;12.23;;;5.50;99.90;;;;;;6353747;22;20052;-71
2021/12/22 12:05:22;;;;;;;26.48;11.23;;;5.60;99.90;;;;;;6356267;22;20002;-72
2021/12/22 12:07:58;;;;;;;31.63;11.82;;;5.60;99.90;;;;;;6355611;22;19999;-72
2021/12/22 12:10:30;;;;;;;31.05;11.88;;;5.60;99.90;;;;;;6351704;22;20011;-71
2021/12/22 12:13:04;;;;;;;35.17;12.75;;;5.60;99.90;;;;;;6325966;22;20326;-70
2021/12/22 12:21:58;;;;;;;26.67;12.82;;;5.80;99.90;;;;;;6358026;22;20028;-72
2021/12/22 12:24:46;;;;;;;23.92;11.77;;;5.90;99.90;;;;;;6356913;22;19999;-72
2021/12/22 12:27:45;;;;;;;33.67;13.27;;;5.80;99.90;;;;;;6317956;22;20089;-72
2021/12/22 12:30:20;;;;;;;29.88;13.13;;;5.80;99.90;;;;;;6341886;22;20099;-72
2021/12/22 12:32:45;;;;;;;32.55;12.48;;;5.80;99.90;;;;;;6341187;22;20006;-71
2021/12/22 12:35:21;;;;;;;29.63;12.20;;;5.70;99.90;;;;;;6344875;22;20460;-73
2021/12/22 12:38:11;;;;;;;33.20;11.10;;;5.80;99.90;;;;;;6320984;22;20014;-71
2021/12/22 12:40:55;;;;;;;29.58;11.77;;;5.80;99.90;;;;;;6334294;22;20059;-72
2021/12/22 12:43:46;;;;;;;27.88;11.80;;;5.70;99.90;;;;;;6340223;22;20051;-71
2021/12/22 12:46:21;;;;;;;33.83;12.15;;;5.70;99.90;;;;;;6343662;22;19998;-73
2021/12/22 12:48:52;;;;;;;31.63;12.00;;;6.00;99.90;;;;;;6345447;22;20071;-71
2021/12/22 12:51:26;;;;;;;33.05;11.82;;;6.10;99.90;;;;;;6341819;22;20306;-72
2021/12/22 12:53:54;;;;;;;32.72;11.82;;;6.10;99.90;;;;;;6341475;22;19999;-72
2021/12/22 12:56:23;;;;;;;30.88;12.40;;;6.10;99.90;;;;;;6342136;22;19998;-73
2021/12/22 12:58:58;;;;;;;35.28;12.55;;;6.00;99.90;;;;;;6339527;22;20013;-71
2021/12/22 13:01:51;;;;;;;31.23;13.05;;;6.00;99.90;;;;;;6342384;22;20335;-72
2021/12/22 13:04:23;;;;;;;38.78;13.02;;;6.10;99.90;;;;;;6345774;22;20376;-71
2021/12/22 13:06:50;;;;;;;36.53;12.43;;;6.20;99.90;;;;;;6343974;22;19999;-71
2021/12/22 13:09:25;;;;;;;33.33;12.00;;;6.20;99.90;;;;;;6355138;22;19999;-71
2021/12/22 13:11:58;;;;;;;31.25;12.45;;;6.20;99.90;;;;;;6350228;22;20058;-73
2021/12/22 13:17:15;;;;;;;25.83;11.60;;;6.20;99.90;;;;;;6355828;22;20078;-72
2021/12/22 13:19:49;;;;;;;29.05;11.60;;;6.20;99.90;;;;;;6356632;22;19990;-73
2021/12/22 13:22:28;;;;;;;30.23;12.32;;;6.30;99.90;;;;;;6353070;22;20020;-72
2021/12/22 13:25:17;;;;;;;31.05;12.88;;;6.30;99.90;;;;;;6347717;22;20477;-71
2021/12/22 13:27:46;;;;;;;31.13;12.57;;;6.40;99.90;;;;;;6351410;22;20024;-72
2021/12/22 13:30:17;;;;;;;30.63;11.93;;;6.40;99.90;;;;;;6348389;22;20046;-71